sensor_id;sensor_type;location;lat;lon;timestamp;pressure;altitude;pressure_sealevel;temperature;humidity
32181;BME280;19172;51.504;3.894;2022-08-14T00:02:02;101031.38;;;30.25;54.52
32181;BME280;19172;51.504;3.894;2022-08-14T00:04:32;101024.22;;;30.11;54.83
32181;BME280;19172;51.504;3.894;2022-08-14T00:07:03;101022.31;;;30.24;55.20
32181;BME280;19172;51.504;3.894;2022-08-14T00:09:31;101011.56;;;30.34;55.43
32181;BME280;19172;51.504;3.894;2022-08-14T00:11:59;101013.69;;;30.41;54.61
32181;BME280;19172;51.504;3.894;2022-08-14T00:14:27;101013.00;;;30.27;55.26
32181;BME280;19172;51.504;3.894;2022-08-14T00:16:55;101011.97;;;30.40;55.98
32181;BME280;19172;51.504;3.894;2022-08-14T00:19:23;100997.28;;;30.07;56.41
32181;BME280;19172;51.504;3.894;2022-08-14T00:21:51;101001.97;;;30.52;55.81
32181;BME280;19172;51.504;3.894;2022-08-14T00:24:21;100993.63;;;30.42;56.21
32181;BME280;19172;51.504;3.894;2022-08-14T00:26:49;100997.22;;;30.19;55.96
32181;BME280;19172;51.504;3.894;2022-08-14T00:29:19;100985.72;;;30.62;55.85
32181;BME280;19172;51.504;3.894;2022-08-14T00:31:47;100989.53;;;30.48;55.78
32181;BME280;19172;51.504;3.894;2022-08-14T00:34:14;100990.22;;;30.39;56.27
32181;BME280;19172;51.504;3.894;2022-08-14T00:37:02;100978.72;;;29.88;56.13
32181;BME280;19172;51.504;3.894;2022-08-14T00:39:32;100982.38;;;30.23;56.76
32181;BME280;19172;51.504;3.894;2022-08-14T00:41:59;100980.97;;;30.18;56.51
32181;BME280;19172;51.504;3.894;2022-08-14T00:44:28;100977.75;;;30.48;56.81
32181;BME280;19172;51.504;3.894;2022-08-14T00:47:01;100984.38;;;30.32;56.27
32181;BME280;19172;51.504;3.894;2022-08-14T00:49:32;100977.88;;;30.46;55.97
32181;BME280;19172;51.504;3.894;2022-08-14T00:52:03;100980.53;;;30.59;55.70
32181;BME280;19172;51.504;3.894;2022-08-14T00:54:32;100979.53;;;30.25;57.60
32181;BME280;19172;51.504;3.894;2022-08-14T00:57:00;100977.78;;;30.59;56.48
32181;BME280;19172;51.504;3.894;2022-08-14T00:59:28;100966.97;;;30.46;56.61
32181;BME280;19172;51.504;3.894;2022-08-14T01:02:00;100970.16;;;30.05;58.21
32181;BME280;19172;51.504;3.894;2022-08-14T01:04:29;100971.78;;;30.19;59.34
32181;BME280;19172;51.504;3.894;2022-08-14T01:07:05;100967.38;;;30.29;58.67
32181;BME280;19172;51.504;3.894;2022-08-14T01:09:35;100971.69;;;30.44;57.92
32181;BME280;19172;51.504;3.894;2022-08-14T01:12:04;100974.03;;;30.14;58.03
32181;BME280;19172;51.504;3.894;2022-08-14T01:14:32;100972.91;;;30.16;59.28
32181;BME280;19172;51.504;3.894;2022-08-14T01:17:02;100964.97;;;30.13;60.26
32181;BME280;19172;51.504;3.894;2022-08-14T01:19:30;100966.00;;;30.23;59.31
32181;BME280;19172;51.504;3.894;2022-08-14T01:22:17;100958.28;;;30.17;59.14
32181;BME280;19172;51.504;3.894;2022-08-14T01:24:46;100943.03;;;29.67;60.58
32181;BME280;19172;51.504;3.894;2022-08-14T01:27:16;100946.50;;;29.69;61.36
32181;BME280;19172;51.504;3.894;2022-08-14T01:29:51;100938.16;;;29.60;61.43
32181;BME280;19172;51.504;3.894;2022-08-14T01:32:26;100929.81;;;29.50;62.71
32181;BME280;19172;51.504;3.894;2022-08-14T01:34:54;100929.19;;;29.70;62.83
32181;BME280;19172;51.504;3.894;2022-08-14T01:37:43;100934.97;;;29.66;62.76
32181;BME280;19172;51.504;3.894;2022-08-14T01:40:14;100923.44;;;29.62;62.43
32181;BME280;19172;51.504;3.894;2022-08-14T01:42:42;100913.09;;;29.78;61.83
32181;BME280;19172;51.504;3.894;2022-08-14T01:45:10;100916.47;;;29.58;61.49
32181;BME280;19172;51.504;3.894;2022-08-14T01:47:44;100915.84;;;29.55;62.71
32181;BME280;19172;51.504;3.894;2022-08-14T01:50:12;100910.94;;;29.71;61.92
32181;BME280;19172;51.504;3.894;2022-08-14T01:52:40;100912.06;;;29.68;62.35
32181;BME280;19172;51.504;3.894;2022-08-14T01:55:26;100905.81;;;30.03;61.14
32181;BME280;19172;51.504;3.894;2022-08-14T01:57:59;100905.66;;;29.80;61.01
32181;BME280;19172;51.504;3.894;2022-08-14T02:00:28;100902.63;;;29.37;62.40
32181;BME280;19172;51.504;3.894;2022-08-14T02:03:02;100895.78;;;29.56;62.88
32181;BME280;19172;51.504;3.894;2022-08-14T02:05:33;100898.56;;;29.67;62.52
32181;BME280;19172;51.504;3.894;2022-08-14T02:08:02;100888.13;;;29.61;62.37
32181;BME280;19172;51.504;3.894;2022-08-14T02:10:40;100895.31;;;29.62;61.74
32181;BME280;19172;51.504;3.894;2022-08-14T02:13:15;100890.25;;;29.68;61.87
32181;BME280;19172;51.504;3.894;2022-08-14T02:15:43;100889.09;;;29.60;62.10
32181;BME280;19172;51.504;3.894;2022-08-14T02:18:11;100890.56;;;29.29;62.39
32181;BME280;19172;51.504;3.894;2022-08-14T02:20:41;100886.97;;;29.16;62.37
32181;BME280;19172;51.504;3.894;2022-08-14T02:23:09;100884.97;;;29.30;62.63
32181;BME280;19172;51.504;3.894;2022-08-14T02:25:37;100891.53;;;29.15;62.02
32181;BME280;19172;51.504;3.894;2022-08-14T02:28:06;100888.16;;;29.24;62.80
32181;BME280;19172;51.504;3.894;2022-08-14T02:30:46;100886.41;;;29.11;61.93
32181;BME280;19172;51.504;3.894;2022-08-14T02:33:14;100881.06;;;29.22;61.65
32181;BME280;19172;51.504;3.894;2022-08-14T02:35:42;100876.28;;;29.25;61.26
32181;BME280;19172;51.504;3.894;2022-08-14T02:38:10;100879.22;;;29.22;60.67
32181;BME280;19172;51.504;3.894;2022-08-14T02:40:48;100870.66;;;29.39;61.57
32181;BME280;19172;51.504;3.894;2022-08-14T02:43:15;100875.59;;;29.34;61.18
32181;BME280;19172;51.504;3.894;2022-08-14T02:45:43;100866.38;;;29.12;60.68
32181;BME280;19172;51.504;3.894;2022-08-14T02:48:14;100868.88;;;29.15;60.78
32181;BME280;19172;51.504;3.894;2022-08-14T02:51:08;100863.25;;;29.05;61.15
32181;BME280;19172;51.504;3.894;2022-08-14T02:53:40;100865.44;;;29.00;59.86
32181;BME280;19172;51.504;3.894;2022-08-14T02:56:14;100860.25;;;28.72;59.90
32181;BME280;19172;51.504;3.894;2022-08-14T02:58:59;100858.53;;;28.71;60.48
32181;BME280;19172;51.504;3.894;2022-08-14T03:01:29;100854.06;;;28.45;61.31
32181;BME280;19172;51.504;3.894;2022-08-14T03:03:58;100850.00;;;28.00;62.90
32181;BME280;19172;51.504;3.894;2022-08-14T03:06:26;100855.53;;;27.85;62.41
32181;BME280;19172;51.504;3.894;2022-08-14T03:09:01;100857.03;;;27.77;63.29
32181;BME280;19172;51.504;3.894;2022-08-14T03:11:29;100850.38;;;27.15;64.00
32181;BME280;19172;51.504;3.894;2022-08-14T03:14:01;100849.13;;;27.33;65.49
32181;BME280;19172;51.504;3.894;2022-08-14T03:16:29;100846.13;;;27.38;64.59
32181;BME280;19172;51.504;3.894;2022-08-14T03:19:04;100847.72;;;27.54;64.63
32181;BME280;19172;51.504;3.894;2022-08-14T03:21:35;100844.38;;;27.37;63.67
32181;BME280;19172;51.504;3.894;2022-08-14T03:24:04;100849.38;;;27.57;63.96
32181;BME280;19172;51.504;3.894;2022-08-14T03:26:45;100838.47;;;27.96;62.69
32181;BME280;19172;51.504;3.894;2022-08-14T03:29:16;100836.47;;;27.73;62.43
32181;BME280;19172;51.504;3.894;2022-08-14T03:31:47;100838.16;;;27.49;63.81
32181;BME280;19172;51.504;3.894;2022-08-14T03:34:18;100834.25;;;27.53;63.74
32181;BME280;19172;51.504;3.894;2022-08-14T03:36:51;100838.00;;;27.77;63.50
32181;BME280;19172;51.504;3.894;2022-08-14T03:39:41;100835.63;;;27.85;62.63
32181;BME280;19172;51.504;3.894;2022-08-14T03:42:09;100842.84;;;27.06;63.65
32181;BME280;19172;51.504;3.894;2022-08-14T03:44:45;100839.16;;;27.33;65.23
32181;BME280;19172;51.504;3.894;2022-08-14T03:47:35;100839.44;;;27.43;65.06
32181;BME280;19172;51.504;3.894;2022-08-14T03:50:13;100841.34;;;27.14;65.71
32181;BME280;19172;51.504;3.894;2022-08-14T03:52:41;100844.88;;;26.74;66.80
32181;BME280;19172;51.504;3.894;2022-08-14T03:55:14;100841.97;;;26.06;71.10
32181;BME280;19172;51.504;3.894;2022-08-14T03:57:42;100847.75;;;26.14;72.72
32181;BME280;19172;51.504;3.894;2022-08-14T04:00:11;100834.44;;;26.40;73.40
32181;BME280;19172;51.504;3.894;2022-08-14T04:02:40;100839.56;;;26.30;72.38
32181;BME280;19172;51.504;3.894;2022-08-14T04:05:13;100836.75;;;26.46;73.68
32181;BME280;19172;51.504;3.894;2022-08-14T04:07:43;100831.16;;;26.63;73.70
32181;BME280;19172;51.504;3.894;2022-08-14T04:10:16;100817.88;;;27.13;72.09
32181;BME280;19172;51.504;3.894;2022-08-14T04:12:52;100816.41;;;26.95;70.88
32181;BME280;19172;51.504;3.894;2022-08-14T04:15:21;100822.72;;;26.67;71.46
32181;BME280;19172;51.504;3.894;2022-08-14T04:17:50;100806.47;;;27.08;71.03
32181;BME280;19172;51.504;3.894;2022-08-14T04:20:18;100812.00;;;27.07;70.11
32181;BME280;19172;51.504;3.894;2022-08-14T04:22:52;100808.53;;;27.05;70.46
32181;BME280;19172;51.504;3.894;2022-08-14T04:25:21;100806.34;;;27.10;70.22
32181;BME280;19172;51.504;3.894;2022-08-14T04:27:49;100806.50;;;26.94;70.01
32181;BME280;19172;51.504;3.894;2022-08-14T04:30:29;100807.38;;;26.95;71.37
32181;BME280;19172;51.504;3.894;2022-08-14T04:32:59;100803.84;;;27.33;70.65
32181;BME280;19172;51.504;3.894;2022-08-14T04:35:34;100800.53;;;26.89;69.70
32181;BME280;19172;51.504;3.894;2022-08-14T04:38:22;100795.03;;;27.03;72.06
32181;BME280;19172;51.504;3.894;2022-08-14T04:41:08;100790.91;;;26.28;75.39
32181;BME280;19172;51.504;3.894;2022-08-14T04:43:57;100793.19;;;26.63;76.38
32181;BME280;19172;51.504;3.894;2022-08-14T04:46:25;100796.28;;;26.57;75.40
32181;BME280;19172;51.504;3.894;2022-08-14T04:49:14;100796.88;;;26.48;76.56
32181;BME280;19172;51.504;3.894;2022-08-14T04:51:42;100781.22;;;26.79;75.03
32181;BME280;19172;51.504;3.894;2022-08-14T04:54:13;100794.16;;;26.34;76.14
32181;BME280;19172;51.504;3.894;2022-08-14T04:56:41;100780.34;;;26.79;75.81
32181;BME280;19172;51.504;3.894;2022-08-14T04:59:09;100780.69;;;26.60;74.98
32181;BME280;19172;51.504;3.894;2022-08-14T05:01:41;100786.59;;;26.53;75.59
32181;BME280;19172;51.504;3.894;2022-08-14T05:04:12;100777.13;;;26.03;78.12
32181;BME280;19172;51.504;3.894;2022-08-14T05:06:41;100785.34;;;26.30;77.77
32181;BME280;19172;51.504;3.894;2022-08-14T05:09:09;100782.34;;;26.20;78.79
32181;BME280;19172;51.504;3.894;2022-08-14T05:11:37;100789.22;;;26.40;76.83
32181;BME280;19172;51.504;3.894;2022-08-14T05:14:04;100781.44;;;26.62;76.41
32181;BME280;19172;51.504;3.894;2022-08-14T05:16:44;100784.41;;;26.45;76.28
32181;BME280;19172;51.504;3.894;2022-08-14T05:19:13;100779.22;;;26.83;75.38
32181;BME280;19172;51.504;3.894;2022-08-14T05:21:45;100792.59;;;27.13;74.89
32181;BME280;19172;51.504;3.894;2022-08-14T05:24:25;100784.00;;;27.85;70.36
32181;BME280;19172;51.504;3.894;2022-08-14T05:26:54;100787.38;;;27.76;67.30
32181;BME280;19172;51.504;3.894;2022-08-14T05:29:22;100785.41;;;28.54;66.94
32181;BME280;19172;51.504;3.894;2022-08-14T05:31:50;100791.13;;;28.87;65.17
32181;BME280;19172;51.504;3.894;2022-08-14T05:34:22;100786.00;;;28.82;63.63
32181;BME280;19172;51.504;3.894;2022-08-14T05:36:50;100786.94;;;29.30;62.11
32181;BME280;19172;51.504;3.894;2022-08-14T05:39:25;100783.09;;;30.14;59.46
32181;BME280;19172;51.504;3.894;2022-08-14T05:41:53;100791.69;;;30.76;57.73
32181;BME280;19172;51.504;3.894;2022-08-14T05:44:21;100782.91;;;31.47;55.29
32181;BME280;19172;51.504;3.894;2022-08-14T05:46:54;100786.25;;;31.30;53.43
32181;BME280;19172;51.504;3.894;2022-08-14T05:49:22;100779.66;;;31.64;52.71
32181;BME280;19172;51.504;3.894;2022-08-14T05:51:52;100775.25;;;31.73;51.22
32181;BME280;19172;51.504;3.894;2022-08-14T05:54:20;100778.56;;;32.18;50.41
32181;BME280;19172;51.504;3.894;2022-08-14T05:56:53;100783.69;;;32.62;49.51
32181;BME280;19172;51.504;3.894;2022-08-14T05:59:21;100780.44;;;32.78;48.30
32181;BME280;19172;51.504;3.894;2022-08-14T06:01:56;100784.03;;;33.28;48.06
32181;BME280;19172;51.504;3.894;2022-08-14T06:04:24;100779.41;;;33.47;47.45
32181;BME280;19172;51.504;3.894;2022-08-14T06:06:52;100775.22;;;33.53;46.83
32181;BME280;19172;51.504;3.894;2022-08-14T06:09:20;100770.47;;;33.65;46.17
32181;BME280;19172;51.504;3.894;2022-08-14T06:11:48;100769.75;;;33.82;46.13
32181;BME280;19172;51.504;3.894;2022-08-14T06:14:16;100780.69;;;34.01;45.53
32181;BME280;19172;51.504;3.894;2022-08-14T06:16:48;100771.69;;;34.18;44.59
32181;BME280;19172;51.504;3.894;2022-08-14T06:19:16;100776.84;;;34.31;44.44
32181;BME280;19172;51.504;3.894;2022-08-14T06:21:45;100777.63;;;34.04;43.46
32181;BME280;19172;51.504;3.894;2022-08-14T06:24:13;100778.19;;;34.27;43.33
32181;BME280;19172;51.504;3.894;2022-08-14T06:26:46;100785.34;;;34.37;42.80
32181;BME280;19172;51.504;3.894;2022-08-14T06:29:18;100787.47;;;34.43;42.26
32181;BME280;19172;51.504;3.894;2022-08-14T06:31:46;100787.44;;;34.07;41.95
32181;BME280;19172;51.504;3.894;2022-08-14T06:34:14;100775.44;;;34.27;42.26
32181;BME280;19172;51.504;3.894;2022-08-14T06:37:02;100777.19;;;33.99;42.22
32181;BME280;19172;51.504;3.894;2022-08-14T06:39:29;100770.22;;;34.33;41.91
32181;BME280;19172;51.504;3.894;2022-08-14T06:42:03;100778.44;;;34.33;42.34
32181;BME280;19172;51.504;3.894;2022-08-14T06:44:31;100773.00;;;34.24;41.79
32181;BME280;19172;51.504;3.894;2022-08-14T06:47:01;100778.28;;;33.79;41.47
32181;BME280;19172;51.504;3.894;2022-08-14T06:49:30;100778.50;;;34.51;41.99
32181;BME280;19172;51.504;3.894;2022-08-14T06:52:07;100781.19;;;34.33;41.89
32181;BME280;19172;51.504;3.894;2022-08-14T06:54:35;100776.00;;;34.67;41.57
32181;BME280;19172;51.504;3.894;2022-08-14T06:57:02;100770.84;;;34.54;42.10
32181;BME280;19172;51.504;3.894;2022-08-14T06:59:31;100771.44;;;33.16;43.34
32181;BME280;19172;51.504;3.894;2022-08-14T07:02:00;100774.78;;;33.77;43.35
32181;BME280;19172;51.504;3.894;2022-08-14T07:04:46;100773.94;;;33.67;43.77
32181;BME280;19172;51.504;3.894;2022-08-14T07:07:38;100768.56;;;33.94;44.95
32181;BME280;19172;51.504;3.894;2022-08-14T07:10:07;100765.66;;;33.86;43.83
32181;BME280;19172;51.504;3.894;2022-08-14T07:12:39;100771.28;;;34.87;44.39
32181;BME280;19172;51.504;3.894;2022-08-14T07:15:21;100767.03;;;35.37;43.27
32181;BME280;19172;51.504;3.894;2022-08-14T07:17:50;100769.47;;;35.58;42.46
32181;BME280;19172;51.504;3.894;2022-08-14T07:20:19;100765.22;;;35.64;42.45
32181;BME280;19172;51.504;3.894;2022-08-14T07:23:02;100774.50;;;35.45;41.28
32181;BME280;19172;51.504;3.894;2022-08-14T07:25:36;100764.38;;;35.00;42.09
32181;BME280;19172;51.504;3.894;2022-08-14T07:28:12;100766.00;;;35.21;42.49
32181;BME280;19172;51.504;3.894;2022-08-14T07:30:48;100761.75;;;35.62;43.22
32181;BME280;19172;51.504;3.894;2022-08-14T07:33:19;100767.00;;;34.75;41.17
32181;BME280;19172;51.504;3.894;2022-08-14T07:35:53;100773.31;;;34.11;41.86
32181;BME280;19172;51.504;3.894;2022-08-14T07:38:26;100779.66;;;34.85;42.00
32181;BME280;19172;51.504;3.894;2022-08-14T07:41:03;100781.56;;;34.11;42.46
32181;BME280;19172;51.504;3.894;2022-08-14T07:43:34;100771.81;;;35.18;42.20
32181;BME280;19172;51.504;3.894;2022-08-14T07:46:03;100771.91;;;33.88;40.12
32181;BME280;19172;51.504;3.894;2022-08-14T07:48:37;100762.28;;;34.85;40.47
32181;BME280;19172;51.504;3.894;2022-08-14T07:51:06;100760.34;;;35.22;40.28
32181;BME280;19172;51.504;3.894;2022-08-14T07:53:38;100763.53;;;35.00;39.45
32181;BME280;19172;51.504;3.894;2022-08-14T07:56:08;100754.69;;;35.59;40.14
32181;BME280;19172;51.504;3.894;2022-08-14T07:58:48;100746.03;;;35.54;38.88
32181;BME280;19172;51.504;3.894;2022-08-14T08:01:18;100747.16;;;35.87;38.61
32181;BME280;19172;51.504;3.894;2022-08-14T08:03:46;100737.56;;;35.30;37.30
32181;BME280;19172;51.504;3.894;2022-08-14T08:06:16;100742.41;;;35.36;37.60
32181;BME280;19172;51.504;3.894;2022-08-14T08:08:48;100740.47;;;35.64;37.07
32181;BME280;19172;51.504;3.894;2022-08-14T08:11:31;100745.34;;;35.70;37.57
32181;BME280;19172;51.504;3.894;2022-08-14T08:14:05;100737.13;;;36.03;38.07
32181;BME280;19172;51.504;3.894;2022-08-14T08:16:37;100744.16;;;36.24;38.02
32181;BME280;19172;51.504;3.894;2022-08-14T08:19:05;100743.03;;;36.34;37.14
32181;BME280;19172;51.504;3.894;2022-08-14T08:21:39;100740.88;;;36.54;36.94
32181;BME280;19172;51.504;3.894;2022-08-14T08:24:07;100738.81;;;36.22;35.54
32181;BME280;19172;51.504;3.894;2022-08-14T08:26:35;100739.41;;;35.82;35.95
32181;BME280;19172;51.504;3.894;2022-08-14T08:29:03;100742.34;;;36.06;37.21
32181;BME280;19172;51.504;3.894;2022-08-14T08:31:32;100742.94;;;35.75;36.14
32181;BME280;19172;51.504;3.894;2022-08-14T08:34:04;100734.34;;;36.21;37.28
32181;BME280;19172;51.504;3.894;2022-08-14T08:36:40;100727.06;;;36.46;37.49
32181;BME280;19172;51.504;3.894;2022-08-14T08:39:09;100736.81;;;36.32;36.82
32181;BME280;19172;51.504;3.894;2022-08-14T08:41:46;100733.09;;;36.49;36.10
32181;BME280;19172;51.504;3.894;2022-08-14T08:44:15;100728.72;;;36.65;35.99
32181;BME280;19172;51.504;3.894;2022-08-14T08:46:44;100732.34;;;36.31;36.28
32181;BME280;19172;51.504;3.894;2022-08-14T08:49:13;100728.28;;;36.51;36.43
32181;BME280;19172;51.504;3.894;2022-08-14T08:51:41;100733.91;;;36.34;35.67
32181;BME280;19172;51.504;3.894;2022-08-14T08:54:12;100726.28;;;36.53;35.79
32181;BME280;19172;51.504;3.894;2022-08-14T08:56:49;100729.41;;;35.81;36.25
32181;BME280;19172;51.504;3.894;2022-08-14T08:59:26;100720.72;;;35.94;35.67
32181;BME280;19172;51.504;3.894;2022-08-14T09:02:01;100722.84;;;35.56;36.78
32181;BME280;19172;51.504;3.894;2022-08-14T09:04:38;100717.63;;;35.28;36.91
32181;BME280;19172;51.504;3.894;2022-08-14T09:07:12;100721.50;;;35.43;37.09
32181;BME280;19172;51.504;3.894;2022-08-14T09:09:40;100717.34;;;35.56;36.50
32181;BME280;19172;51.504;3.894;2022-08-14T09:12:21;100711.13;;;35.98;36.93
32181;BME280;19172;51.504;3.894;2022-08-14T09:14:49;100699.09;;;36.58;37.26
32181;BME280;19172;51.504;3.894;2022-08-14T09:17:19;100700.28;;;36.22;36.28
32181;BME280;19172;51.504;3.894;2022-08-14T09:19:52;100694.09;;;36.62;36.50
32181;BME280;19172;51.504;3.894;2022-08-14T09:22:22;100696.22;;;36.92;35.64
32181;BME280;19172;51.504;3.894;2022-08-14T09:24:59;100696.31;;;37.33;35.69
32181;BME280;19172;51.504;3.894;2022-08-14T09:27:27;100696.34;;;37.65;34.94
32181;BME280;19172;51.504;3.894;2022-08-14T09:29:55;100696.00;;;37.68;35.27
32181;BME280;19172;51.504;3.894;2022-08-14T09:32:35;100694.03;;;37.85;34.74
32181;BME280;19172;51.504;3.894;2022-08-14T09:38:37;100692.19;;;38.48;34.81
32181;BME280;19172;51.504;3.894;2022-08-14T09:44:04;100689.06;;;38.51;32.66
32181;BME280;19172;51.504;3.894;2022-08-14T09:46:34;100683.25;;;38.38;32.53
32181;BME280;19172;51.504;3.894;2022-08-14T09:49:06;100686.50;;;38.34;33.22
32181;BME280;19172;51.504;3.894;2022-08-14T09:51:42;100677.88;;;38.45;33.45
32181;BME280;19172;51.504;3.894;2022-08-14T09:54:18;100679.94;;;38.35;32.93
32181;BME280;19172;51.504;3.894;2022-08-14T09:56:50;100674.72;;;38.01;33.21
32181;BME280;19172;51.504;3.894;2022-08-14T09:59:24;100677.88;;;37.57;32.94
32181;BME280;19172;51.504;3.894;2022-08-14T10:01:53;100671.28;;;37.83;33.82
32181;BME280;19172;51.504;3.894;2022-08-14T10:04:26;100672.59;;;38.19;34.12
32181;BME280;19172;51.504;3.894;2022-08-14T10:07:03;100668.97;;;36.65;33.46
32181;BME280;19172;51.504;3.894;2022-08-14T10:09:32;100655.88;;;38.12;34.55
32181;BME280;19172;51.504;3.894;2022-08-14T10:12:02;100655.78;;;38.37;33.36
32181;BME280;19172;51.504;3.894;2022-08-14T10:14:33;100658.66;;;38.74;33.73
32181;BME280;19172;51.504;3.894;2022-08-14T10:17:04;100661.06;;;38.07;32.41
32181;BME280;19172;51.504;3.894;2022-08-14T10:19:34;100659.16;;;38.78;32.60
32181;BME280;19172;51.504;3.894;2022-08-14T10:22:08;100654.38;;;38.72;32.18
32181;BME280;19172;51.504;3.894;2022-08-14T10:24:56;100644.84;;;38.12;30.51
32181;BME280;19172;51.504;3.894;2022-08-14T10:27:26;100645.91;;;38.73;31.99
32181;BME280;19172;51.504;3.894;2022-08-14T10:29:58;100649.22;;;38.30;30.85
32181;BME280;19172;51.504;3.894;2022-08-14T10:32:27;100653.84;;;37.90;29.63
32181;BME280;19172;51.504;3.894;2022-08-14T10:35:06;100651.00;;;37.11;29.99
32181;BME280;19172;51.504;3.894;2022-08-14T10:37:49;100650.97;;;37.59;30.05
32181;BME280;19172;51.504;3.894;2022-08-14T10:40:29;100647.38;;;38.22;30.05
32181;BME280;19172;51.504;3.894;2022-08-14T10:43:20;100645.56;;;38.06;30.13
32181;BME280;19172;51.504;3.894;2022-08-14T10:45:58;100646.81;;;38.65;30.04
32181;BME280;19172;51.504;3.894;2022-08-14T10:48:30;100643.19;;;38.96;30.45
32181;BME280;19172;51.504;3.894;2022-08-14T10:51:05;100642.38;;;39.33;29.93
32181;BME280;19172;51.504;3.894;2022-08-14T10:53:36;100638.56;;;39.11;29.17
32181;BME280;19172;51.504;3.894;2022-08-14T10:56:10;100629.28;;;39.04;29.53
32181;BME280;19172;51.504;3.894;2022-08-14T10:59:02;100628.06;;;39.06;30.08
32181;BME280;19172;51.504;3.894;2022-08-14T11:01:36;100626.38;;;39.20;29.87
32181;BME280;19172;51.504;3.894;2022-08-14T11:04:05;100616.16;;;38.83;29.09
32181;BME280;19172;51.504;3.894;2022-08-14T11:06:32;100617.19;;;39.05;29.72
32181;BME280;19172;51.504;3.894;2022-08-14T11:09:10;100616.22;;;38.98;29.43
32181;BME280;19172;51.504;3.894;2022-08-14T11:11:41;100617.66;;;38.32;29.34
32181;BME280;19172;51.504;3.894;2022-08-14T11:14:09;100612.28;;;38.31;29.91
32181;BME280;19172;51.504;3.894;2022-08-14T11:16:38;100609.03;;;38.27;29.47
32181;BME280;19172;51.504;3.894;2022-08-14T11:19:10;100606.94;;;38.37;29.54
32181;BME280;19172;51.504;3.894;2022-08-14T11:21:41;100598.47;;;38.61;30.48
32181;BME280;19172;51.504;3.894;2022-08-14T11:24:13;100597.53;;;38.46;30.06
32181;BME280;19172;51.504;3.894;2022-08-14T11:27:03;100592.88;;;38.08;29.98
32181;BME280;19172;51.504;3.894;2022-08-14T11:29:33;100586.66;;;38.14;29.62
32181;BME280;19172;51.504;3.894;2022-08-14T11:32:05;100581.91;;;38.39;30.19
32181;BME280;19172;51.504;3.894;2022-08-14T11:34:39;100579.56;;;38.50;30.46
32181;BME280;19172;51.504;3.894;2022-08-14T11:37:12;100577.97;;;38.79;30.40
32181;BME280;19172;51.504;3.894;2022-08-14T11:39:46;100582.59;;;37.86;29.97
32181;BME280;19172;51.504;3.894;2022-08-14T11:42:21;100581.19;;;38.68;31.13
32181;BME280;19172;51.504;3.894;2022-08-14T11:45:10;100573.19;;;39.18;30.84
32181;BME280;19172;51.504;3.894;2022-08-14T11:47:43;100581.41;;;39.26;29.98
32181;BME280;19172;51.504;3.894;2022-08-14T11:50:33;100574.38;;;39.24;29.85
32181;BME280;19172;51.504;3.894;2022-08-14T11:53:06;100560.13;;;38.89;30.19
32181;BME280;19172;51.504;3.894;2022-08-14T11:55:37;100563.88;;;38.74;30.35
32181;BME280;19172;51.504;3.894;2022-08-14T11:58:09;100553.75;;;39.26;31.00
32181;BME280;19172;51.504;3.894;2022-08-14T12:00:49;100559.44;;;38.42;29.92
32181;BME280;19172;51.504;3.894;2022-08-14T12:03:17;100554.63;;;39.27;30.10
32181;BME280;19172;51.504;3.894;2022-08-14T12:05:49;100557.34;;;39.12;29.54
32181;BME280;19172;51.504;3.894;2022-08-14T12:08:18;100557.75;;;39.24;30.36
32181;BME280;19172;51.504;3.894;2022-08-14T12:10:55;100549.81;;;39.21;30.19
32181;BME280;19172;51.504;3.894;2022-08-14T12:13:27;100554.72;;;38.20;30.82
32181;BME280;19172;51.504;3.894;2022-08-14T12:16:02;100547.03;;;38.30;29.97
32181;BME280;19172;51.504;3.894;2022-08-14T12:18:34;100549.28;;;38.26;30.35
32181;BME280;19172;51.504;3.894;2022-08-14T12:21:20;100542.00;;;38.41;30.10
32181;BME280;19172;51.504;3.894;2022-08-14T12:24:08;100537.28;;;37.72;30.69
32181;BME280;19172;51.504;3.894;2022-08-14T12:26:36;100537.97;;;37.74;30.04
32181;BME280;19172;51.504;3.894;2022-08-14T12:29:12;100539.69;;;38.14;30.21
32181;BME280;19172;51.504;3.894;2022-08-14T12:31:42;100531.13;;;38.09;30.25
32181;BME280;19172;51.504;3.894;2022-08-14T12:34:14;100536.13;;;38.05;30.17
32181;BME280;19172;51.504;3.894;2022-08-14T12:36:47;100531.38;;;37.83;30.34
32181;BME280;19172;51.504;3.894;2022-08-14T12:39:20;100521.28;;;38.37;30.35
32181;BME280;19172;51.504;3.894;2022-08-14T12:41:54;100515.53;;;39.07;30.66
32181;BME280;19172;51.504;3.894;2022-08-14T12:44:34;100517.06;;;38.95;30.12
32181;BME280;19172;51.504;3.894;2022-08-14T12:47:05;100510.78;;;38.78;30.16
32181;BME280;19172;51.504;3.894;2022-08-14T12:49:33;100515.25;;;39.02;30.52
32181;BME280;19172;51.504;3.894;2022-08-14T12:52:02;100513.81;;;39.06;30.44
32181;BME280;19172;51.504;3.894;2022-08-14T12:54:31;100503.34;;;38.79;30.18
32181;BME280;19172;51.504;3.894;2022-08-14T12:57:07;100502.25;;;39.25;30.61
32181;BME280;19172;51.504;3.894;2022-08-14T12:59:36;100511.88;;;39.29;29.99
32181;BME280;19172;51.504;3.894;2022-08-14T13:02:23;100514.13;;;39.11;29.80
32181;BME280;19172;51.504;3.894;2022-08-14T13:04:55;100509.75;;;39.16;30.15
32181;BME280;19172;51.504;3.894;2022-08-14T13:07:28;100513.63;;;39.07;29.89
32181;BME280;19172;51.504;3.894;2022-08-14T13:10:00;100501.31;;;38.95;30.06
32181;BME280;19172;51.504;3.894;2022-08-14T13:12:41;100508.28;;;39.06;30.24
32181;BME280;19172;51.504;3.894;2022-08-14T13:15:29;100503.78;;;38.90;29.64
32181;BME280;19172;51.504;3.894;2022-08-14T13:17:57;100510.69;;;37.87;29.72
32181;BME280;19172;51.504;3.894;2022-08-14T13:20:28;100504.22;;;38.79;30.16
32181;BME280;19172;51.504;3.894;2022-08-14T13:22:58;100507.03;;;38.94;29.72
32181;BME280;19172;51.504;3.894;2022-08-14T13:25:26;100494.91;;;38.57;29.23